Time;durP1;ratioP1;P1;durP2;ratioP2;P2;SDS_P1;SDS_P2;PMS_P1;PMS_P2;Temp;Humidity;BMP_temperature;BMP_pressure;BME280_temperature;BME280_humidity;BME280_pressure;Samples;Min_cycle;Max_cycle;Signal;HPM_P1;HPM_P2
2024/03/13 00:01:16;;;;;;;10.43;6.60;;;;;;;9.80;100.00;100992.38;5138401;27;20691;-68
2024/03/13 00:03:45;;;;;;;10.93;5.07;;;;;;;9.73;100.00;100987.94;5117822;27;20212;-69
2024/03/13 00:10:16;;;;;;;9.50;5.65;;;;;;;9.68;100.00;100999.34;5121585;27;20893;-69
2024/03/13 00:12:47;;;;;;;12.87;6.40;;;;;;;9.77;100.00;100998.19;5121824;27;20309;-69
2024/03/13 00:15:16;;;;;;;6.00;3.53;;;;;;;9.54;100.00;100997.50;5134511;27;20420;-68
2024/03/13 00:17:45;;;;;;;6.75;4.20;;;;;;;9.58;100.00;100996.13;5132499;27;20399;-69
2024/03/13 00:20:14;;;;;;;11.60;6.63;;;;;;;9.56;100.00;100996.31;5135807;27;20297;-69
2024/03/13 00:22:44;;;;;;;7.57;3.92;;;;;;;9.57;100.00;100991.75;5139273;27;20457;-69
2024/03/13 00:25:14;;;;;;;9.23;4.50;;;;;;;9.65;100.00;100998.88;5139362;27;20194;-68
2024/03/13 00:27:46;;;;;;;8.43;3.78;;;;;;;9.60;100.00;100997.59;5148447;27;20189;-70
2024/03/13 00:30:17;;;;;;;10.05;5.18;;;;;;;9.57;100.00;101002.56;5134444;27;20249;-68
2024/03/13 00:32:46;;;;;;;7.40;4.70;;;;;;;9.65;100.00;100999.72;5130836;27;20229;-68
2024/03/13 00:35:15;;;;;;;7.13;4.50;;;;;;;9.60;100.00;101002.16;5138453;27;20605;-68
2024/03/13 00:37:45;;;;;;;15.88;5.03;;;;;;;9.60;100.00;101000.28;5136227;27;20539;-69
2024/03/13 00:40:14;;;;;;;8.40;5.25;;;;;;;9.60;100.00;101005.69;5129064;27;20219;-69
2024/03/13 00:42:44;;;;;;;9.80;5.50;;;;;;;9.52;100.00;101000.44;5136060;28;20182;-69
2024/03/13 00:45:13;;;;;;;6.93;4.03;;;;;;;9.61;100.00;100998.44;5144191;27;20596;-70
2024/03/13 00:47:43;;;;;;;7.67;4.33;;;;;;;9.56;100.00;101008.97;5126613;27;20689;-68
2024/03/13 00:50:15;;;;;;;11.10;6.03;;;;;;;9.46;100.00;101005.75;5122997;27;20517;-68
2024/03/13 00:52:44;;;;;;;7.82;5.55;;;;;;;9.52;100.00;101007.69;5119152;28;20200;-69
2024/03/13 00:55:13;;;;;;;5.93;3.33;;;;;;;9.49;100.00;100998.09;5137521;28;20689;-69
2024/03/13 00:57:42;;;;;;;10.95;5.07;;;;;;;9.57;100.00;100995.28;5111153;28;20233;-69
2024/03/13 01:00:15;;;;;;;8.30;6.15;;;;;;;9.59;100.00;101001.31;5137892;27;20244;-69
2024/03/13 01:02:46;;;;;;;10.35;5.30;;;;;;;9.55;100.00;101010.00;5144219;27;20687;-69
2024/03/13 01:05:16;;;;;;;6.45;4.45;;;;;;;9.59;100.00;101005.88;5138871;27;20265;-69
2024/03/13 01:07:48;;;;;;;10.82;5.88;;;;;;;9.53;100.00;101009.38;5134657;27;20197;-69
2024/03/13 01:10:17;;;;;;;8.13;4.25;;;;;;;9.42;100.00;101009.88;5131307;27;20213;-69
2024/03/13 01:12:49;;;;;;;6.53;4.60;;;;;;;9.45;100.00;101004.06;5128324;27;20698;-69
2024/03/13 01:15:18;;;;;;;10.77;5.18;;;;;;;9.30;100.00;101004.13;5129681;27;20190;-69
2024/03/13 01:17:48;;;;;;;13.30;5.78;;;;;;;9.34;100.00;101002.75;5135569;27;20200;-69
2024/03/13 01:20:19;;;;;;;6.97;4.63;;;;;;;9.35;100.00;101003.56;5128910;27;20210;-69
2024/03/13 01:22:49;;;;;;;7.25;3.42;;;;;;;9.37;100.00;101012.31;5139519;27;20281;-68
2024/03/13 01:25:19;;;;;;;10.50;3.70;;;;;;;9.35;100.00;101003.56;5140753;27;20186;-68
2024/03/13 01:27:49;;;;;;;8.50;3.95;;;;;;;9.22;100.00;100998.00;5140339;27;20206;-68
2024/03/13 01:30:18;;;;;;;12.77;6.22;;;;;;;9.22;100.00;101003.41;5138272;27;20214;-69
2024/03/13 01:32:48;;;;;;;9.10;5.18;;;;;;;9.24;100.00;100995.97;5131721;27;20178;-69
2024/03/13 01:35:19;;;;;;;6.88;4.85;;;;;;;9.29;100.00;101007.03;5131540;27;20194;-69
2024/03/13 01:37:57;;;;;;;5.55;3.47;;;;;;;9.20;100.00;100995.50;5129921;27;20231;-70
2024/03/13 01:54:50;;;;;;;5.40;4.47;;;;;;;9.27;100.00;101000.97;5132203;27;20210;-69
2024/03/13 01:55:06;;;;;;;8.15;4.18;;;;;;;9.45;100.00;100993.28;5133682;27;20206;-69
2024/03/13 01:58:07;;;;;;;10.85;5.07;;;;;;;9.47;100.00;100991.22;5135106;27;20208;-68
2024/03/13 02:03:26;;;;;;;9.32;3.80;;;;;;;9.34;100.00;100994.63;5127270;27;20194;-68
2024/03/13 02:05:57;;;;;;;7.70;4.30;;;;;;;9.42;100.00;100985.56;5127002;27;20540;-69
2024/03/13 02:08:28;;;;;;;8.20;4.40;;;;;;;9.40;100.00;100984.91;5136374;27;20190;-68
2024/03/13 02:10:58;;;;;;;7.90;4.15;;;;;;;9.40;100.00;100990.31;5132504;27;20488;-69
2024/03/13 02:13:26;;;;;;;8.85;5.20;;;;;;;9.45;100.00;100993.28;5130049;27;20202;-69
2024/03/13 02:15:55;;;;;;;8.85;3.28;;;;;;;9.49;100.00;100989.16;5133117;27;20717;-70
2024/03/13 02:18:30;;;;;;;8.23;4.95;;;;;;;9.41;100.00;101002.78;5132820;27;20193;-67
2024/03/13 02:21:01;;;;;;;7.38;4.68;;;;;;;9.30;100.00;100992.47;5127471;27;20192;-69
2024/03/13 02:23:30;;;;;;;7.35;3.90;;;;;;;9.41;100.00;100989.28;5135899;27;20618;-69
2024/03/13 02:25:59;;;;;;;8.82;5.88;;;;;;;9.46;100.00;100992.25;5105103;27;20683;-69
2024/03/13 02:28:34;;;;;;;9.80;4.43;;;;;;;9.50;100.00;100990.84;5093566;27;20602;-67
2024/03/13 02:31:06;;;;;;;7.20;4.93;;;;;;;9.44;100.00;100997.03;5101937;27;20193;-68
2024/03/13 02:33:35;;;;;;;8.90;5.32;;;;;;;9.40;100.00;100984.91;5102367;27;20189;-69
2024/03/13 02:36:05;;;;;;;6.13;4.25;;;;;;;9.47;100.00;100985.81;5100617;27;20659;-68
2024/03/13 02:38:34;;;;;;;7.85;5.00;;;;;;;9.38;100.00;100995.09;5099147;27;20187;-69
2024/03/13 02:41:03;;;;;;;5.15;4.53;;;;;;;9.45;100.00;100994.09;5100498;27;20265;-69
2024/03/13 02:43:32;;;;;;;9.27;3.72;;;;;;;9.45;100.00;100987.88;5097550;27;20185;-68
2024/03/13 02:46:02;;;;;;;6.95;3.90;;;;;;;9.41;100.00;100997.38;5103542;27;20191;-69
2024/03/13 02:48:32;;;;;;;11.10;4.90;;;;;;;9.40;100.00;100993.00;5100214;27;20190;-68
2024/03/13 02:51:00;;;;;;;10.85;4.78;;;;;;;9.24;100.00;100993.28;5100555;27;20190;-69
2024/03/13 02:53:29;;;;;;;11.32;5.13;;;;;;;9.40;100.00;100993.84;5097871;27;20194;-70
2024/03/13 02:55:59;;;;;;;11.77;4.57;;;;;;;9.27;100.00;100982.06;5095241;27;20194;-70
2024/03/13 02:58:27;;;;;;;6.88;4.32;;;;;;;9.44;100.00;100991.63;5100027;27;20190;-68
2024/03/13 03:00:57;;;;;;;6.55;4.35;;;;;;;9.35;100.00;100988.19;5097485;27;20194;-68
2024/03/13 03:03:27;;;;;;;13.68;5.68;;;;;;;9.29;100.00;100988.97;5116673;27;20190;-68
2024/03/13 03:05:57;;;;;;;9.18;6.25;;;;;;;9.32;100.00;100993.13;5100482;27;20201;-68
2024/03/13 03:08:26;;;;;;;7.50;4.60;;;;;;;9.29;100.00;100993.53;5101902;27;20304;-69
2024/03/13 03:10:55;;;;;;;10.45;5.93;;;;;;;9.26;100.00;100991.19;5093753;28;20187;-68
2024/03/13 03:13:25;;;;;;;8.10;5.05;;;;;;;9.20;100.00;100989.28;5101599;27;20702;-67
2024/03/13 03:15:53;;;;;;;8.32;3.95;;;;;;;9.12;100.00;100987.53;5098072;27;20213;-69
2024/03/13 03:18:23;;;;;;;6.72;3.25;;;;;;;8.93;100.00;100988.13;5104405;27;20194;-69
2024/03/13 03:20:52;;;;;;;4.97;3.57;;;;;;;9.09;100.00;100982.50;5100367;27;20281;-68
2024/03/13 03:23:21;;;;;;;11.70;5.78;;;;;;;9.19;100.00;100987.59;5096390;27;20431;-68
2024/03/13 03:25:50;;;;;;;8.40;4.90;;;;;;;8.96;100.00;100988.56;5100040;27;20245;-69
2024/03/13 03:28:19;;;;;;;11.48;7.15;;;;;;;9.02;100.00;100993.22;5092699;27;20186;-69
2024/03/13 03:30:48;;;;;;;11.77;4.82;;;;;;;9.03;100.00;100994.91;5094415;28;20211;-69
2024/03/13 03:33:17;;;;;;;7.90;5.35;;;;;;;8.90;100.00;100994.75;5101335;27;20194;-68
2024/03/13 03:35:46;;;;;;;8.55;5.68;;;;;;;8.92;100.00;100997.25;5100115;27;20214;-69
2024/03/13 03:38:15;;;;;;;5.65;4.57;;;;;;;8.88;100.00;100995.94;5087996;27;20191;-69
2024/03/13 03:40:45;;;;;;;9.43;4.13;;;;;;;8.63;100.00;100992.72;5099335;27;20241;-69
2024/03/13 03:43:14;;;;;;;8.07;4.68;;;;;;;8.79;100.00;100995.22;5096106;27;20190;-69
2024/03/13 03:45:43;;;;;;;7.97;5.20;;;;;;;8.53;100.00;100992.16;5092570;27;20258;-68
2024/03/13 03:48:12;;;;;;;12.32;6.50;;;;;;;8.58;100.00;100987.03;5102134;27;20190;-68
2024/03/13 03:50:41;;;;;;;7.30;4.43;;;;;;;8.55;100.00;100990.97;5104192;27;20245;-69
2024/03/13 03:53:10;;;;;;;12.90;5.45;;;;;;;8.51;100.00;100984.28;5100884;27;20186;-68
2024/03/13 03:55:40;;;;;;;12.35;5.60;;;;;;;8.40;100.00;100992.81;5105456;27;20279;-69
2024/03/13 03:58:09;;;;;;;10.48;6.30;;;;;;;8.19;100.00;100985.44;5096973;28;20570;-69
2024/03/13 04:00:38;;;;;;;18.05;6.78;;;;;;;8.08;100.00;100980.50;5106666;27;20242;-68
2024/03/13 04:03:09;;;;;;;14.77;4.07;;;;;;;7.84;100.00;100981.56;5081319;28;20197;-67
2024/03/13 04:05:40;;;;;;;10.07;4.93;;;;;;;7.82;100.00;100983.59;5098410;27;20178;-68
2024/03/13 04:08:09;;;;;;;8.20;6.20;;;;;;;7.73;100.00;100990.09;5105730;27;20194;-69
2024/03/13 04:10:39;;;;;;;11.73;5.22;;;;;;;7.53;100.00;100982.66;5105199;27;20304;-69
2024/03/13 04:13:08;;;;;;;11.13;5.55;;;;;;;7.40;100.00;100985.97;5100847;27;20186;-68
2024/03/13 04:15:37;;;;;;;6.05;5.55;;;;;;;7.37;100.00;100984.47;5097938;27;20225;-68
2024/03/13 04:18:06;;;;;;;11.90;6.28;;;;;;;7.25;100.00;100993.16;5098389;28;20615;-69
2024/03/13 04:20:35;;;;;;;9.30;4.00;;;;;;;7.36;100.00;101001.63;5097369;27;20676;-68
2024/03/13 04:23:05;;;;;;;13.75;7.88;;;;;;;7.27;100.00;101000.00;5105333;27;20190;-67
2024/03/13 04:25:36;;;;;;;12.85;6.07;;;;;;;7.29;100.00;100999.84;5106405;27;20576;-66
2024/03/13 04:28:07;;;;;;;9.90;4.65;;;;;;;7.29;100.00;100995.31;5103687;27;20205;-69
2024/03/13 04:30:36;;;;;;;17.75;6.15;;;;;;;7.17;100.00;100998.56;5098185;27;20267;-68
2024/03/13 04:33:04;;;;;;;8.02;4.80;;;;;;;7.14;100.00;100999.75;5092819;27;20251;-69
2024/03/13 04:35:33;;;;;;;6.75;4.93;;;;;;;6.92;100.00;101000.56;5097848;28;20198;-70
2024/03/13 04:38:03;;;;;;;7.18;4.80;;;;;;;6.88;100.00;101009.97;5079033;27;20462;-68
2024/03/13 04:40:32;;;;;;;13.68;6.82;;;;;;;6.84;100.00;101008.66;5109533;27;20220;-70
2024/03/13 04:43:01;;;;;;;12.75;4.22;;;;;;;6.83;100.00;101006.97;5096229;28;20744;-67
2024/03/13 04:45:30;;;;;;;12.85;7.57;;;;;;;6.80;100.00;101004.66;5097708;28;20190;-68
2024/03/13 04:47:59;;;;;;;5.43;3.92;;;;;;;6.72;100.00;101005.53;5088090;28;20699;-68
2024/03/13 04:50:30;;;;;;;17.15;6.38;;;;;;;6.65;100.00;101001.84;5080023;28;20254;-68
2024/03/13 04:52:58;;;;;;;12.70;5.93;;;;;;;6.90;100.00;101003.44;5099014;28;20602;-69
2024/03/13 04:55:29;;;;;;;8.02;4.68;;;;;;;6.89;100.00;101006.28;5099156;27;20235;-70
2024/03/13 04:57:59;;;;;;;11.68;7.47;;;;;;;6.84;100.00;101005.97;5106669;28;20226;-69
2024/03/13 05:00:28;;;;;;;7.88;3.88;;;;;;;6.94;100.00;101009.28;5088616;28;20589;-69
2024/03/13 05:02:57;;;;;;;13.82;8.02;;;;;;;6.84;100.00;101009.50;5100565;28;20259;-68
2024/03/13 05:05:26;;;;;;;9.50;5.93;;;;;;;6.63;100.00;101016.50;5096603;27;20185;-69
2024/03/13 05:07:56;;;;;;;10.90;4.07;;;;;;;6.50;100.00;101017.88;5100018;28;20189;-69
2024/03/13 05:10:29;;;;;;;10.63;6.20;;;;;;;6.61;100.00;101013.13;5109575;27;20220;-69
2024/03/13 05:12:58;;;;;;;14.88;6.47;;;;;;;6.77;100.00;101013.09;5097924;27;20547;-68
2024/03/13 05:15:27;;;;;;;9.15;5.38;;;;;;;6.70;100.00;101012.94;5107631;28;20691;-69
2024/03/13 05:17:57;;;;;;;6.57;3.15;;;;;;;6.74;100.00;101008.03;5095626;28;20191;-70
2024/03/13 05:20:28;;;;;;;5.30;4.90;;;;;;;6.46;100.00;101010.31;5118363;27;20238;-68
2024/03/13 05:22:56;;;;;;;6.68;4.28;;;;;;;6.27;100.00;101010.72;5105800;28;20218;-69
2024/03/13 05:25:25;;;;;;;11.93;6.88;;;;;;;6.13;100.00;101014.94;5108289;28;20216;-68
2024/03/13 05:27:53;;;;;;;10.32;5.22;;;;;;;6.06;100.00;101019.31;5100601;28;20289;-68
2024/03/13 05:30:23;;;;;;;9.68;4.53;;;;;;;6.09;100.00;101005.56;5097433;28;20224;-68
2024/03/13 05:32:52;;;;;;;10.95;7.18;;;;;;;6.00;100.00;101010.06;5087181;28;20277;-69
2024/03/13 05:35:21;;;;;;;10.45;5.72;;;;;;;5.98;100.00;101011.25;5091777;27;20262;-68
2024/03/13 05:37:50;;;;;;;12.05;5.75;;;;;;;5.93;100.00;101016.31;5098944;28;20276;-69
2024/03/13 05:40:19;;;;;;;8.55;5.18;;;;;;;5.96;100.00;101018.63;5099452;28;20287;-69
2024/03/13 05:42:48;;;;;;;9.93;5.95;;;;;;;6.14;100.00;101019.31;5098028;27;20189;-67
2024/03/13 05:45:18;;;;;;;10.18;5.30;;;;;;;6.14;100.00;101027.38;5094637;28;20510;-69
2024/03/13 05:47:48;;;;;;;13.02;5.70;;;;;;;6.05;100.00;101015.78;5109918;27;20197;-68
2024/03/13 05:50:18;;;;;;;10.82;6.25;;;;;;;6.09;100.00;101021.66;5102121;27;20218;-68
2024/03/13 05:52:47;;;;;;;18.75;4.60;;;;;;;6.17;100.00;101032.41;5103164;27;20671;-68
2024/03/13 05:55:16;;;;;;;8.93;5.18;;;;;;;6.31;100.00;101034.38;5098954;27;20225;-68
2024/03/13 05:57:50;;;;;;;12.32;5.15;;;;;;;6.45;100.00;101030.16;5099684;27;20212;-67
2024/03/13 06:00:19;;;;;;;12.88;6.07;;;;;;;6.52;100.00;101032.00;5100825;27;20243;-68
2024/03/13 06:02:48;;;;;;;8.95;5.55;;;;;;;6.50;100.00;101034.00;5100069;27;20272;-68
2024/03/13 06:05:18;;;;;;;10.88;4.93;;;;;;;6.57;100.00;101034.16;5096533;27;20186;-68
2024/03/13 06:07:47;;;;;;;8.30;6.32;;;;;;;6.62;100.00;101030.94;5101459;27;20185;-68
2024/03/13 06:10:16;;;;;;;9.55;6.97;;;;;;;6.82;100.00;101026.84;5101064;27;20635;-69
2024/03/13 06:12:45;;;;;;;13.45;7.30;;;;;;;6.86;100.00;101028.16;5095413;27;20190;-68
2024/03/13 06:15:14;;;;;;;9.20;4.65;;;;;;;7.07;100.00;101036.44;5101912;27;20190;-69
2024/03/13 06:17:45;;;;;;;14.35;6.97;;;;;;;7.13;100.00;101041.16;5101466;27;20244;-69
2024/03/13 06:20:17;;;;;;;15.18;6.10;;;;;;;7.18;100.00;101037.91;5101971;27;20582;-69
2024/03/13 06:22:47;;;;;;;8.60;4.85;;;;;;;7.25;100.00;101045.13;5108655;27;20216;-69
2024/03/13 06:25:18;;;;;;;7.40;5.65;;;;;;;7.30;100.00;101048.13;5104625;27;20705;-70
2024/03/13 06:27:50;;;;;;;14.45;7.97;;;;;;;7.42;100.00;101052.06;5093692;27;20197;-70
2024/03/13 06:30:18;;;;;;;10.75;6.50;;;;;;;7.60;100.00;101057.16;5102053;27;20210;-68
2024/03/13 06:32:47;;;;;;;14.15;9.38;;;;;;;7.69;100.00;101053.44;5095269;27;20567;-69
2024/03/13 06:35:17;;;;;;;12.15;6.10;;;;;;;7.68;100.00;101053.59;5089949;27;20196;-69
2024/03/13 06:37:46;;;;;;;9.07;6.88;;;;;;;7.82;100.00;101059.03;5094626;27;20238;-69
2024/03/13 06:40:15;;;;;;;6.47;4.15;;;;;;;7.83;100.00;101060.72;5104367;27;20213;-69
2024/03/13 06:42:45;;;;;;;24.75;6.97;;;;;;;8.03;100.00;101055.69;5106030;27;20204;-69
2024/03/13 06:45:16;;;;;;;21.40;7.88;;;;;;;7.98;100.00;101060.78;5103891;27;20182;-68
2024/03/13 06:47:57;;;;;;;15.00;5.43;;;;;;;8.19;100.00;101063.59;5102225;27;20193;-68
2024/03/13 06:50:26;;;;;;;23.05;10.98;;;;;;;8.20;100.00;101070.69;5098377;27;20297;-68
2024/03/13 06:52:57;;;;;;;11.20;6.10;;;;;;;8.25;100.00;101065.56;5103396;27;20251;-70
2024/03/13 06:55:26;;;;;;;9.20;4.43;;;;;;;8.40;100.00;101067.50;5101129;27;20225;-68
2024/03/13 06:57:55;;;;;;;13.30;6.28;;;;;;;8.44;100.00;101075.03;5099616;27;20283;-68
2024/03/13 07:00:27;;;;;;;8.73;4.95;;;;;;;8.48;100.00;101075.50;5101792;27;20212;-68
2024/03/13 07:02:56;;;;;;;13.35;8.50;;;;;;;8.68;100.00;101073.94;5103407;27;20192;-69
2024/03/13 07:05:25;;;;;;;16.08;7.78;;;;;;;8.67;100.00;101074.94;5104449;27;20198;-69
2024/03/13 07:07:54;;;;;;;11.05;5.30;;;;;;;8.91;100.00;101080.06;5097294;27;20187;-68
2024/03/13 07:10:52;;;;;;;15.05;6.55;;;;;;;9.03;100.00;101086.69;5109858;27;20217;-68
2024/03/13 07:13:21;;;;;;;16.65;7.57;;;;;;;9.05;100.00;101073.81;5114275;27;20569;-67
2024/03/13 07:15:50;;;;;;;18.02;5.43;;;;;;;9.15;100.00;101087.88;5095558;28;20182;-68
2024/03/13 07:18:19;;;;;;;17.85;9.75;;;;;;;9.19;100.00;101080.25;5096504;27;20261;-69
2024/03/13 07:20:47;;;;;;;11.95;5.68;;;;;;;9.24;100.00;101087.78;5093897;27;20210;-67
2024/03/13 07:23:16;;;;;;;9.63;5.20;;;;;;;9.35;100.00;101084.56;5094553;28;20273;-68
2024/03/13 07:25:45;;;;;;;12.23;6.20;;;;;;;9.36;100.00;101091.66;5096650;27;20254;-68
2024/03/13 07:28:14;;;;;;;13.00;6.43;;;;;;;9.48;100.00;101095.56;5092407;28;20270;-68
2024/03/13 07:30:43;;;;;;;15.55;8.63;;;;;;;9.57;100.00;101086.31;5092143;27;20210;-68
2024/03/13 07:33:12;;;;;;;12.13;8.60;;;;;;;9.69;100.00;101094.72;5107851;27;20214;-70
2024/03/13 07:35:41;;;;;;;18.90;8.38;;;;;;;9.79;100.00;101095.25;5100369;27;20201;-69
2024/03/13 07:38:10;;;;;;;13.93;7.30;;;;;;;9.79;100.00;101096.09;5097417;27;20208;-68
2024/03/13 07:40:39;;;;;;;15.33;7.03;;;;;;;9.88;99.95;101092.22;5100927;27;20304;-70
2024/03/13 07:43:09;;;;;;;17.50;8.52;;;;;;;9.76;100.00;101091.09;5099789;27;20507;-69
2024/03/13 07:45:39;;;;;;;14.45;8.40;;;;;;;9.99;99.52;101088.19;5096950;27;20193;-69
2024/03/13 07:48:08;;;;;;;18.90;8.60;;;;;;;10.15;98.52;101087.09;5096539;27;20587;-70
2024/03/13 07:50:38;;;;;;;21.60;7.05;;;;;;;10.11;97.52;101094.75;5097963;27;20953;-69
2024/03/13 07:53:08;;;;;;;15.43;7.57;;;;;;;10.29;97.37;101095.16;5099302;27;20192;-67
2024/03/13 07:55:37;;;;;;;13.30;6.00;;;;;;;10.35;95.72;101101.66;5098353;27;20182;-67
2024/03/13 07:58:06;;;;;;;17.07;9.80;;;;;;;10.38;96.12;101109.38;5079323;27;20476;-68
2024/03/13 08:00:36;;;;;;;11.63;6.27;;;;;;;10.58;94.40;101099.53;5097342;27;20449;-66
2024/03/13 08:03:05;;;;;;;17.07;8.60;;;;;;;10.74;93.72;101103.81;5101246;27;20912;-69
2024/03/13 08:05:34;;;;;;;17.90;6.80;;;;;;;10.69;92.18;101117.13;5096008;27;21028;-69
2024/03/13 08:08:03;;;;;;;14.83;7.37;;;;;;;10.70;91.55;101111.47;5100302;27;20426;-70
2024/03/13 08:10:49;;;;;;;11.10;5.60;;;;;;;10.76;90.82;101112.56;5100045;27;20467;-69
2024/03/13 08:13:36;;;;;;;18.23;7.47;;;;;;;11.03;90.48;101113.56;5104493;27;20459;-68
2024/03/13 08:16:22;;;;;;;11.53;6.43;;;;;;;11.20;87.71;101114.91;5100293;27;20427;-68
2024/03/13 08:19:08;;;;;;;12.87;7.77;;;;;;;11.21;88.42;101112.00;5098618;27;20474;-65
2024/03/13 08:21:55;;;;;;;12.13;7.07;;;;;;;11.45;86.05;101113.34;5101916;27;21011;-68
2024/03/13 08:24:41;;;;;;;11.67;5.53;;;;;;;11.52;86.01;101108.78;5104206;27;20488;-69
2024/03/13 08:27:27;;;;;;;12.23;7.57;;;;;;;11.60;84.50;101115.91;5102091;27;20949;-69
2024/03/13 08:30:17;;;;;;;13.30;6.50;;;;;;;11.91;81.96;101112.72;5104435;27;20432;-69
2024/03/13 08:33:03;;;;;;;17.10;8.00;;;;;;;11.97;81.36;101111.84;5100752;27;20823;-67
2024/03/13 08:35:50;;;;;;;12.73;6.53;;;;;;;11.76;80.15;101110.16;5096186;27;20431;-67
2024/03/13 08:38:36;;;;;;;17.97;6.80;;;;;;;11.91;79.52;101123.56;5091099;28;20482;-68
2024/03/13 08:41:23;;;;;;;10.77;6.83;;;;;;;12.03;78.13;101117.31;5107478;27;20420;-68
2024/03/13 08:44:11;;;;;;;9.70;6.10;;;;;;;12.02;78.26;101117.50;5094419;28;20475;-68
2024/03/13 08:46:58;;;;;;;13.87;6.57;;;;;;;12.20;75.95;101112.31;5103677;27;20500;-69
2024/03/13 08:49:47;;;;;;;8.60;6.80;;;;;;;12.44;74.83;101108.97;5101050;28;20550;-69
2024/03/13 08:52:34;;;;;;;9.97;7.77;;;;;;;12.35;74.06;101112.94;5104274;28;20414;-69
2024/03/13 08:55:21;;;;;;;20.10;7.50;;;;;;;12.24;74.88;101113.59;5104298;28;20880;-69
2024/03/13 08:58:07;;;;;;;12.27;7.40;;;;;;;12.42;73.53;101110.25;5106595;27;20550;-70
2024/03/13 09:00:55;;;;;;;9.80;5.90;;;;;;;12.23;74.92;101106.47;5097645;28;20432;-67
2024/03/13 09:03:42;;;;;;;9.77;5.97;;;;;;;12.41;73.90;101109.41;5101969;28;20777;-68
2024/03/13 09:06:29;;;;;;;11.87;6.07;;;;;;;12.45;74.52;101102.50;5107612;28;20931;-69
2024/03/13 09:08:58;;;;;;;12.80;7.60;;;;;;;12.60;71.89;101114.00;5093159;28;20477;-69
2024/03/13 09:11:28;;;;;;;13.50;6.53;;;;;;;12.65;71.27;101113.34;5096788;28;20438;-68
2024/03/13 09:14:01;;;;;;;15.63;6.57;;;;;;;12.69;71.05;101113.75;5096654;28;20402;-67
2024/03/13 09:16:31;;;;;;;12.53;5.60;;;;;;;12.77;70.39;101113.56;5097829;27;20806;-69
2024/03/13 09:19:00;;;;;;;11.80;5.57;;;;;;;12.83;70.66;101118.16;5100031;27;20417;-69
2024/03/13 09:21:29;;;;;;;8.83;7.93;;;;;;;12.79;70.35;101119.59;5098090;27;20511;-68
2024/03/13 09:23:58;;;;;;;11.03;6.37;;;;;;;12.96;68.52;101113.53;5095387;27;20981;-68
2024/03/13 09:26:29;;;;;;;8.80;5.60;;;;;;;12.71;68.41;101115.22;5101942;27;20405;-69
2024/03/13 09:29:00;;;;;;;9.30;5.43;;;;;;;12.69;68.17;101120.03;5106044;27;20486;-68
2024/03/13 09:31:30;;;;;;;8.77;6.33;;;;;;;12.53;69.16;101113.16;5098813;28;20404;-69
2024/03/13 09:33:59;;;;;;;6.90;4.07;;;;;;;12.54;68.79;101109.38;5101982;27;20425;-69
2024/03/13 09:36:28;;;;;;;9.67;4.50;;;;;;;12.49;69.45;101100.22;5101751;27;20427;-67
2024/03/13 09:38:57;;;;;;;11.33;6.80;;;;;;;12.80;68.24;101097.66;5107152;27;20485;-69
2024/03/13 09:41:26;;;;;;;14.03;5.90;;;;;;;12.94;67.58;101101.19;5105868;27;20779;-70
2024/03/13 09:43:55;;;;;;;10.23;6.17;;;;;;;13.09;65.89;101096.34;5100668;27;20419;-69
2024/03/13 09:46:24;;;;;;;11.87;7.33;;;;;;;13.04;65.94;101088.00;5101209;27;20402;-69
2024/03/13 09:48:54;;;;;;;13.17;7.40;;;;;;;13.18;66.43;101094.25;5098282;27;20478;-68
2024/03/13 09:51:23;;;;;;;10.47;5.17;;;;;;;13.61;65.68;101094.47;5101634;27;20401;-68
2024/03/13 09:53:52;;;;;;;11.10;7.10;;;;;;;13.72;62.65;101096.53;5098585;27;20538;-68
2024/03/13 09:56:21;;;;;;;7.77;6.03;;;;;;;13.75;63.07;101096.91;5097618;27;20459;-67
2024/03/13 09:58:50;;;;;;;10.63;5.80;;;;;;;13.57;63.16;101093.25;5097322;27;20494;-68
2024/03/13 10:01:25;;;;;;;12.00;5.50;;;;;;;13.88;62.59;101096.84;5099356;27;20493;-69
2024/03/13 10:03:56;;;;;;;7.47;4.70;;;;;;;14.01;60.96;101100.53;5105078;27;20414;-68
2024/03/13 10:06:26;;;;;;;8.80;4.43;;;;;;;13.79;62.34;101103.59;5091448;27;20411;-67
2024/03/13 10:08:55;;;;;;;12.90;5.50;;;;;;;13.86;60.80;101103.56;5103161;27;20444;-67
2024/03/13 10:11:24;;;;;;;7.43;4.57;;;;;;;14.05;59.18;101102.59;5100278;27;20410;-67
2024/03/13 10:13:53;;;;;;;10.50;6.27;;;;;;;13.92;58.64;101097.25;5104250;27;20401;-68
2024/03/13 10:16:23;;;;;;;8.30;5.53;;;;;;;13.78;59.42;101095.66;5088574;28;20445;-67
2024/03/13 10:18:52;;;;;;;8.93;4.80;;;;;;;13.90;59.72;101096.63;5106138;27;20974;-68
2024/03/13 10:21:21;;;;;;;10.93;6.27;;;;;;;14.08;59.37;101096.72;5096502;27;20477;-69
2024/03/13 10:23:50;;;;;;;22.87;6.33;;;;;;;13.84;59.44;101090.19;5096460;27;20428;-68
2024/03/13 10:26:20;;;;;;;9.10;5.40;;;;;;;14.08;59.00;101074.94;5097952;27;20394;-69
2024/03/13 10:28:49;;;;;;;14.13;5.17;;;;;;;14.43;57.86;101082.63;5100260;27;20436;-68
2024/03/13 10:31:18;;;;;;;9.47;5.43;;;;;;;14.67;56.69;101073.59;5085325;27;20472;-69
2024/03/13 10:33:49;;;;;;;15.17;6.73;;;;;;;14.68;55.29;101070.66;5099300;27;20824;-69
2024/03/13 10:36:18;;;;;;;10.27;6.97;;;;;;;14.77;54.99;101069.31;5105516;27;20420;-68
2024/03/13 10:38:48;;;;;;;11.10;4.63;;;;;;;15.10;54.08;101063.50;5094972;27;20570;-69
2024/03/13 10:41:17;;;;;;;6.67;5.00;;;;;;;15.36;53.31;101067.81;5098978;27;20424;-68
2024/03/13 10:43:47;;;;;;;10.17;5.20;;;;;;;15.31;53.90;101064.09;5098516;27;20398;-70
2024/03/13 10:46:16;;;;;;;6.33;3.83;;;;;;;15.56;53.17;101059.38;5091993;27;20475;-70
2024/03/13 10:48:45;;;;;;;12.50;4.60;;;;;;;15.33;52.63;101056.53;5097931;27;20434;-69
2024/03/13 10:51:14;;;;;;;11.30;6.00;;;;;;;15.29;52.65;101058.06;5097072;27;20419;-69
2024/03/13 10:53:45;;;;;;;8.73;4.77;;;;;;;15.26;52.20;101061.22;5097299;27;20455;-69
2024/03/13 10:56:14;;;;;;;11.77;5.63;;;;;;;15.15;51.69;101055.47;5089414;27;20419;-69
2024/03/13 10:58:46;;;;;;;9.73;4.20;;;;;;;15.32;50.17;101052.97;5101979;27;20541;-70
2024/03/13 11:01:16;;;;;;;5.77;3.70;;;;;;;15.67;50.19;101058.63;5100511;27;20423;-70
2024/03/13 11:03:45;;;;;;;7.90;5.00;;;;;;;16.06;49.01;101055.28;5108630;27;20406;-69
2024/03/13 11:06:15;;;;;;;7.23;5.27;;;;;;;15.78;47.90;101065.97;5105201;27;20414;-69
2024/03/13 11:08:45;;;;;;;5.63;3.93;;;;;;;15.13;47.70;101068.50;5103438;27;20394;-67
2024/03/13 11:11:14;;;;;;;6.10;4.30;;;;;;;15.03;49.58;101057.31;5097324;27;20417;-68
2024/03/13 11:13:53;;;;;;;8.37;4.30;;;;;;;15.43;49.11;101048.63;5098801;27;20480;-68
2024/03/13 11:16:23;;;;;;;8.40;5.37;;;;;;;15.31;49.63;101064.09;5100496;27;20681;-67
2024/03/13 11:18:52;;;;;;;5.10;3.70;;;;;;;15.16;50.81;101068.03;5103184;27;20471;-68
2024/03/13 11:21:22;;;;;;;12.23;6.20;;;;;;;15.40;50.39;101059.97;5096260;27;20880;-72
2024/03/13 11:23:52;;;;;;;7.23;4.43;;;;;;;15.32;51.18;101066.59;5099182;27;20426;-68
2024/03/13 11:26:22;;;;;;;9.73;6.47;;;;;;;15.37;51.34;101049.56;5098608;27;20406;-68
2024/03/13 11:28:51;;;;;;;8.20;4.30;;;;;;;15.95;49.97;101050.63;5096272;27;20430;-66
2024/03/13 11:31:20;;;;;;;6.93;4.23;;;;;;;16.01;49.93;101055.16;5103662;27;20431;-68
2024/03/13 11:33:49;;;;;;;7.67;5.17;;;;;;;15.79;49.76;101062.19;5094326;28;21011;-68
2024/03/13 11:36:18;;;;;;;10.30;6.67;;;;;;;15.34;50.38;101055.47;5116128;27;20489;-68
2024/03/13 11:38:47;;;;;;;7.53;5.03;;;;;;;15.06;50.74;101062.28;5092721;27;20525;-68
2024/03/13 11:41:16;;;;;;;9.37;6.40;;;;;;;15.19;50.82;101055.88;5097458;27;21014;-67
2024/03/13 11:43:46;;;;;;;6.80;3.40;;;;;;;15.30;50.74;101040.63;5099960;27;20475;-70
2024/03/13 11:46:17;;;;;;;7.70;4.87;;;;;;;15.01;52.15;101053.13;5098955;27;20925;-69
2024/03/13 11:48:46;;;;;;;11.20;8.23;;;;;;;15.14;53.11;101053.81;5090842;28;20479;-69
2024/03/13 11:51:15;;;;;;;10.37;8.20;;;;;;;15.09;52.97;101045.50;5093174;27;20413;-67
2024/03/13 11:53:45;;;;;;;10.60;6.77;;;;;;;15.20;52.91;101036.53;5101846;27;20410;-68
2024/03/13 11:56:20;;;;;;;7.23;3.90;;;;;;;15.28;52.49;101031.84;5084261;27;20418;-70
2024/03/13 11:58:49;;;;;;;6.80;4.80;;;;;;;15.33;52.96;101027.38;5087751;27;20452;-69